weather.gov     
National Weather Service

Terminal Aerodrome Forecast
NWS Homepage
This page is being discontinued on March 12, 2014.
The same data is available at this site. Please update your bookmarks.
Thank you, and we apologize for the inconvenience.
Please send an email to SR-SRH.Webmaster@noaa.gov with any concerns.


Current Version
Previous Version:    01  02  03  04  05  06  07  08  09  10  11  12  13  14  15  16  17  18  19  20  21  22  23  24  25  26  27  28  29  30  
   31  
[Printable]
112
FTUS43 KGLD 200500
TAFGLD
TAF
KGLD 200520Z 2006/2106 06007KT P6SM SCT100 BKN150
     FM201000 36006KT P6SM BKN070
     FM201700 06008KT P6SM VCSH BKN070
     FM201900 13010KT P6SM BKN060 PROB30 2020/2024 -TSRA OVC030CB
     FM210300 VRB06KT P6SM SCT200=


U.S. Dept. of Commerce
NOAA National Weather Service
1325 East West Highway
Silver Spring, MD 20910
E-mail: w-nws.webmaster@noaa.gov
Page last modified: May 16, 2007
NATIONAL WEATHER SERVICE: for Safety, for Work, for Fun - FOR LIFE